createdAt,value
2017-05-18T00:00:47.287Z,0
2017-05-18T00:01:32.696Z,0
2017-05-18T00:02:32.728Z,0
2017-05-18T00:03:32.139Z,0
2017-05-18T00:04:32.775Z,0
2017-05-18T00:05:32.798Z,0
2017-05-18T00:06:32.822Z,0
2017-05-18T00:07:31.940Z,0
2017-05-18T00:08:32.568Z,0
2017-05-18T00:09:32.904Z,0
2017-05-18T00:10:32.920Z,0
2017-05-18T00:11:47.563Z,0
2017-05-18T00:12:32.971Z,0
2017-05-18T00:13:33.000Z,0
2017-05-18T00:14:33.024Z,0
2017-05-18T00:16:47.689Z,0
2017-05-18T00:17:32.795Z,0
2017-05-18T00:18:33.127Z,0
2017-05-18T00:19:32.861Z,0
2017-05-18T00:20:32.872Z,0
2017-05-18T00:21:33.197Z,0
2017-05-18T00:22:33.224Z,0
2017-05-18T00:23:47.868Z,0
2017-05-18T00:24:33.278Z,0
2017-05-18T00:25:32.994Z,0
2017-05-18T00:26:33.022Z,0
2017-05-18T00:27:33.350Z,0
2017-05-18T00:28:33.375Z,0
2017-05-18T00:29:33.408Z,0
2017-05-18T00:30:33.428Z,0
2017-05-18T00:31:33.451Z,0
2017-05-18T00:32:48.093Z,0
2017-05-18T00:33:33.503Z,0
2017-05-18T00:34:33.225Z,0
2017-05-18T00:35:33.247Z,0
2017-05-18T00:36:33.575Z,0
2017-05-18T00:37:33.299Z,0
2017-05-18T00:38:33.329Z,0
2017-05-18T00:39:33.648Z,0
2017-05-18T00:40:48.293Z,0
2017-05-18T00:41:33.397Z,0
2017-05-18T00:42:33.422Z,0
2017-05-18T00:43:33.754Z,0
2017-05-18T00:44:33.779Z,0
2017-05-18T00:45:48.417Z,0
2017-05-18T00:47:33.853Z,0
2017-05-18T00:48:48.497Z,0
2017-05-18T00:50:33.925Z,0
2017-05-18T00:51:33.948Z,0
2017-05-18T00:52:33.973Z,0
2017-05-18T00:53:33.999Z,0
2017-05-18T00:54:34.023Z,0
2017-05-18T00:55:33.746Z,0
2017-05-18T00:56:34.086Z,0
2017-05-18T00:57:34.100Z,0
2017-05-18T00:58:34.125Z,0
2017-05-18T00:59:34.149Z,0
2017-05-18T01:00:48.792Z,0
2017-05-18T01:01:34.197Z,0
2017-05-18T01:02:34.228Z,0
2017-05-18T01:03:48.866Z,0
2017-05-18T01:04:34.275Z,0
2017-05-18T01:06:34.329Z,0
2017-05-18T01:07:34.358Z,0
2017-05-18T01:08:34.375Z,0
2017-05-18T01:09:49.065Z,0
2017-05-18T01:10:34.426Z,0
2017-05-18T01:11:49.065Z,0
2017-05-18T01:12:34.471Z,0
2017-05-18T01:13:34.507Z,0
2017-05-18T01:14:34.219Z,0
2017-05-18T01:15:34.548Z,0
2017-05-18T01:16:34.571Z,0
2017-05-18T01:17:34.598Z,0
2017-05-18T01:18:34.624Z,0
2017-05-18T01:20:34.671Z,0
2017-05-18T01:21:34.695Z,0
2017-05-18T01:22:34.723Z,0
2017-05-18T01:23:34.749Z,0
2017-05-18T01:24:34.770Z,0
2017-05-18T01:25:49.413Z,0
2017-05-18T01:26:34.818Z,0
2017-05-18T01:27:34.844Z,0
2017-05-18T01:28:34.872Z,0
2017-05-18T01:29:34.902Z,0
2017-05-18T01:30:34.919Z,0
2017-05-18T01:31:34.946Z,0
2017-05-18T01:32:34.970Z,0
2017-05-18T01:34:34.720Z,0
2017-05-18T01:35:49.716Z,0
2017-05-18T01:36:35.073Z,0
2017-05-18T01:37:34.790Z,0
2017-05-18T01:38:34.811Z,0
2017-05-18T01:39:35.145Z,0
2017-05-18T01:40:34.913Z,0
2017-05-18T01:41:35.190Z,0
2017-05-18T01:43:35.277Z,0
2017-05-18T01:44:35.272Z,0
2017-05-18T01:45:49.904Z,0
2017-05-18T01:46:35.010Z,0
2017-05-18T01:47:35.036Z,0
2017-05-18T01:48:35.364Z,0
2017-05-18T01:49:35.383Z,0
2017-05-18T01:50:35.418Z,0
2017-05-18T01:51:50.057Z,0
2017-05-18T01:52:35.157Z,0
2017-05-18T01:53:35.491Z,0
2017-05-18T01:54:35.509Z,0
2017-05-18T01:55:35.534Z,0
2017-05-18T01:56:35.563Z,0
2017-05-18T01:57:35.583Z,0
2017-05-18T01:58:35.607Z,0
2017-05-18T01:59:50.251Z,0
2017-05-18T02:00:35.655Z,0
2017-05-18T02:01:35.381Z,0
2017-05-18T02:02:35.708Z,0
2017-05-18T02:03:50.349Z,0
2017-05-18T02:04:35.455Z,0
2017-05-18T02:05:35.477Z,0
2017-05-18T02:06:35.508Z,0
2017-05-18T02:07:50.446Z,0
2017-05-18T02:08:35.246Z,0
2017-05-18T02:09:35.885Z,0
2017-05-18T02:10:35.596Z,0
2017-05-18T02:11:35.924Z,0
2017-05-18T02:12:35.645Z,0
2017-05-18T02:13:35.675Z,0
2017-05-18T02:14:35.998Z,0
2017-05-18T02:15:50.643Z,0
2017-05-18T02:16:50.670Z,0
2017-05-18T02:17:35.776Z,0
2017-05-18T02:18:36.102Z,0
2017-05-18T02:19:36.128Z,0
2017-05-18T02:20:36.150Z,0
2017-05-18T02:21:35.875Z,0
2017-05-18T02:22:35.893Z,4
2017-05-18T02:23:50.836Z,4
2017-05-18T02:24:36.247Z,4
2017-05-18T02:25:36.271Z,0
2017-05-18T02:26:36.292Z,4
2017-05-18T02:27:36.318Z,4
2017-05-18T02:28:36.040Z,4
2017-05-18T02:29:36.374Z,8
2017-05-18T02:30:36.391Z,4
2017-05-18T02:31:36.416Z,8
2017-05-18T02:32:36.444Z,4
2017-05-18T02:33:51.080Z,8
2017-05-18T02:34:51.103Z,8
2017-05-18T02:35:51.130Z,12
2017-05-18T02:36:36.539Z,12
2017-05-18T02:37:36.564Z,12
2017-05-18T02:38:51.203Z,16
2017-05-18T02:39:36.611Z,16
2017-05-18T02:40:36.636Z,24
2017-05-18T02:41:36.660Z,24
2017-05-18T02:42:36.685Z,24
2017-05-18T02:43:36.709Z,28
2017-05-18T02:44:36.735Z,36
2017-05-18T02:45:36.757Z,40
2017-05-18T02:46:36.781Z,44
2017-05-18T02:47:36.805Z,48
2017-05-18T02:48:36.841Z,56
2017-05-18T02:49:36.852Z,64
2017-05-18T02:50:51.495Z,72
2017-05-18T02:51:51.569Z,84
2017-05-18T02:52:36.929Z,92
2017-05-18T02:54:36.976Z,112
2017-05-18T02:55:37.001Z,124
2017-05-18T02:56:37.025Z,136
2017-05-18T02:57:37.049Z,148
2017-05-18T02:58:37.070Z,164
2017-05-18T02:59:36.797Z,180
2017-05-18T03:00:37.120Z,196
2017-05-18T03:01:37.148Z,212
2017-05-18T03:02:51.785Z,232
2017-05-18T03:03:51.810Z,252
2017-05-18T03:04:37.215Z,268
2017-05-18T03:05:37.246Z,288
2017-05-18T03:06:37.266Z,312
2017-05-18T03:08:37.314Z,360
2017-05-18T03:09:37.338Z,384
2017-05-18T03:10:51.983Z,416
2017-05-18T03:11:37.389Z,436
2017-05-18T03:12:37.411Z,468
2017-05-18T03:13:37.436Z,500
2017-05-18T03:14:37.460Z,532
2017-05-18T03:15:37.482Z,564
2017-05-18T03:16:37.506Z,600
2017-05-18T03:17:37.536Z,636
2017-05-18T03:18:37.556Z,676
2017-05-18T03:19:37.581Z,716
2017-05-18T03:20:37.599Z,756
2017-05-18T03:21:52.241Z,812
2017-05-18T03:22:37.652Z,844
2017-05-18T03:23:52.293Z,900
2017-05-18T03:24:37.701Z,936
2017-05-18T03:25:37.720Z,988
2017-05-18T03:26:52.369Z,1048
2017-05-18T03:27:37.775Z,1088
2017-05-18T03:28:37.492Z,1136
2017-05-18T03:29:37.520Z,1188
2017-05-18T03:30:37.842Z,1240
2017-05-18T03:31:37.864Z,1296
2017-05-18T03:32:37.892Z,1352
2017-05-18T03:33:37.913Z,1408
2017-05-18T03:34:37.942Z,1464
2017-05-18T03:35:37.962Z,1520
2017-05-18T03:36:37.985Z,1580
2017-05-18T03:37:38.013Z,1640
2017-05-18T03:38:52.653Z,1712
2017-05-18T03:39:38.058Z,1756
2017-05-18T03:40:38.088Z,1816
2017-05-18T03:41:38.114Z,1872
2017-05-18T03:42:52.746Z,1948
2017-05-18T03:43:38.154Z,1996
2017-05-18T03:44:38.192Z,2056
2017-05-18T03:45:38.201Z,2356
2017-05-18T03:46:38.227Z,2464
2017-05-18T03:47:38.258Z,2404
2017-05-18T03:48:38.275Z,2380
2017-05-18T03:49:38.299Z,2412
2017-05-18T03:50:38.334Z,2472
2017-05-18T03:51:38.044Z,2592
2017-05-18T03:52:52.988Z,2992
2017-05-18T03:53:38.395Z,3744
2017-05-18T03:54:53.036Z,4788
2017-05-18T03:55:38.141Z,3988
2017-05-18T03:56:38.471Z,3152
2017-05-18T03:57:38.494Z,3880
2017-05-18T03:58:53.138Z,3504
2017-05-18T03:59:38.541Z,3364
2017-05-18T04:00:38.262Z,5608
2017-05-18T04:01:38.291Z,6584
2017-05-18T04:02:38.312Z,3884
2017-05-18T04:03:38.646Z,4196
2017-05-18T04:04:38.666Z,5036
2017-05-18T04:05:38.683Z,4888
2017-05-18T04:06:38.410Z,3692
2017-05-18T04:07:53.350Z,3660
2017-05-18T04:08:53.373Z,3928
2017-05-18T04:09:38.780Z,4208
2017-05-18T04:10:53.425Z,5556
2017-05-18T04:11:38.834Z,6892
2017-05-18T04:12:38.859Z,5956
2017-05-18T04:13:53.497Z,5616
2017-05-18T04:14:38.908Z,7088
2017-05-18T04:15:38.936Z,6176
2017-05-18T04:16:38.953Z,4700
2017-05-18T04:17:38.976Z,5196
2017-05-18T04:18:39.006Z,4748
2017-05-18T04:19:38.726Z,5436
2017-05-18T04:20:38.745Z,5296
2017-05-18T04:21:39.075Z,4576
2017-05-18T04:22:39.103Z,4476
2017-05-18T04:23:39.131Z,4508
2017-05-18T04:24:39.158Z,4532
2017-05-18T04:25:39.170Z,4564
2017-05-18T04:26:39.195Z,4680
2017-05-18T04:27:39.228Z,4728
2017-05-18T04:28:39.257Z,4760
2017-05-18T04:29:39.276Z,4800
2017-05-18T04:30:39.292Z,4876
2017-05-18T04:31:39.322Z,4956
2017-05-18T04:32:39.342Z,5148
2017-05-18T04:33:39.368Z,5244
2017-05-18T04:34:39.394Z,5480
2017-05-18T04:35:39.419Z,5512
2017-05-18T04:36:39.438Z,5468
2017-05-18T04:37:39.479Z,5348
2017-05-18T04:38:39.491Z,5500
2017-05-18T04:39:39.512Z,6796
2017-05-18T04:40:54.155Z,21856
2017-05-18T04:41:39.561Z,38976
2017-05-18T04:42:39.594Z,49472
2017-05-18T04:44:39.641Z,60448
2017-05-18T04:45:54.277Z,61344
2017-05-18T04:46:39.689Z,61952
2017-05-18T04:47:39.739Z,58880
2017-05-18T04:48:39.738Z,56768
2017-05-18T04:49:39.457Z,53504
2017-05-18T04:50:39.793Z,58368
2017-05-18T04:51:39.819Z,62912
2017-05-18T04:52:39.846Z,64256
2017-05-18T04:53:39.876Z,64032
2017-05-18T04:54:39.908Z,63168
2017-05-18T04:55:54.593Z,62528
2017-05-18T04:56:54.574Z,62336
2017-05-18T04:57:39.985Z,63392
2017-05-18T04:59:40.041Z,63680
2017-05-18T05:00:40.071Z,61920
2017-05-18T05:01:54.722Z,61184
2017-05-18T05:02:40.140Z,58976
2017-05-18T05:03:40.168Z,58816
2017-05-18T05:04:40.196Z,60992
2017-05-18T05:05:40.232Z,65696
2017-05-18T05:06:40.256Z,70144
2017-05-18T05:07:40.289Z,71008
2017-05-18T05:08:40.321Z,70976
2017-05-18T05:09:40.353Z,74144
2017-05-18T05:10:40.386Z,71456
2017-05-18T05:11:40.417Z,70368
2017-05-18T05:12:40.452Z,70560
2017-05-18T05:13:40.488Z,72896
2017-05-18T05:14:55.134Z,74432
2017-05-18T05:15:40.549Z,74656
2017-05-18T05:16:40.638Z,74784
2017-05-18T05:17:54.934Z,73504
2017-05-18T05:18:40.652Z,73248
2017-05-18T05:19:40.686Z,74272
2017-05-18T05:20:40.722Z,76512
2017-05-18T05:21:40.754Z,76928
2017-05-18T05:22:40.843Z,74368
2017-05-18T05:23:40.825Z,75168
2017-05-18T05:25:40.892Z,75360
2017-05-18T05:26:40.933Z,77440
2017-05-18T05:27:40.968Z,77664
2017-05-18T05:28:41.000Z,77440
2017-05-18T05:29:41.034Z,78272
2017-05-18T05:30:41.071Z,77408
2017-05-18T05:32:41.140Z,75296
2017-05-18T05:33:55.797Z,75904
2017-05-18T05:34:55.536Z,78240
2017-05-18T05:35:40.945Z,80032
2017-05-18T05:36:41.292Z,79872
2017-05-18T05:37:41.325Z,78336
2017-05-18T05:38:41.056Z,76704
2017-05-18T05:39:41.396Z,78880
2017-05-18T05:40:41.128Z,80640
2017-05-18T05:41:41.469Z,82560
2017-05-18T05:42:41.211Z,81504
2017-05-18T05:43:41.542Z,80576
2017-05-18T05:44:56.245Z,79776
2017-05-18T05:45:41.614Z,79040
2017-05-18T05:46:41.653Z,79040
2017-05-18T05:47:41.693Z,78464
2017-05-18T05:48:56.348Z,77760
2017-05-18T05:49:41.464Z,78016
2017-05-18T05:50:41.799Z,77344
2017-05-18T05:51:41.841Z,77600
2017-05-18T05:52:41.879Z,80384
2017-05-18T05:53:41.968Z,82112
2017-05-18T05:54:56.574Z,85376
2017-05-18T05:55:41.989Z,84928
2017-05-18T05:56:42.026Z,85504
2017-05-18T05:57:42.071Z,84640
2017-05-18T05:58:42.100Z,85184
2017-05-18T06:00:42.177Z,84896
2017-05-18T06:01:56.845Z,85152
2017-05-18T06:02:42.258Z,88224
2017-05-18T06:03:42.292Z,87104
2017-05-18T06:04:42.334Z,84704
2017-05-18T06:05:42.367Z,82464
2017-05-18T06:06:42.404Z,84896
2017-05-18T06:07:42.443Z,88416
2017-05-18T06:08:42.503Z,87840
2017-05-18T06:09:42.520Z,86304
2017-05-18T06:10:42.556Z,86144
2017-05-18T06:11:42.291Z,86272
2017-05-18T06:12:42.640Z,85984
2017-05-18T06:13:42.973Z,84512
2017-05-18T06:14:42.710Z,85920
2017-05-18T06:15:42.745Z,86176
2017-05-18T06:16:42.784Z,82784
2017-05-18T06:17:42.827Z,80256
2017-05-18T06:18:42.861Z,81152
2017-05-18T06:19:42.898Z,83328
2017-05-18T06:20:57.563Z,83040
2017-05-18T06:21:42.675Z,82272
2017-05-18T06:22:43.022Z,81344
2017-05-18T06:23:43.056Z,78624
2017-05-18T06:24:43.090Z,76064
2017-05-18T06:25:43.131Z,77568
2017-05-18T06:26:43.174Z,77056
2017-05-18T06:27:57.831Z,81280
2017-05-18T06:28:42.950Z,83616
2017-05-18T06:29:57.911Z,84960
2017-05-18T06:30:43.331Z,84160
2017-05-18T06:31:43.370Z,83008
2017-05-18T06:32:43.412Z,84832
2017-05-18T06:36:58.180Z,75744
2017-05-18T06:37:43.602Z,78272
2017-05-18T06:38:43.028Z,79424
2017-05-18T06:39:43.372Z,79616
2017-05-18T06:40:43.413Z,77216
2017-05-18T06:41:43.772Z,75168
2017-05-18T06:42:43.495Z,77280
2017-05-18T06:43:43.830Z,79488
2017-05-18T06:44:43.871Z,76320
2017-05-18T06:45:43.307Z,76576
2017-05-18T06:46:43.951Z,77888
2017-05-18T06:47:43.983Z,77600
2017-05-18T06:49:44.060Z,75264
2017-05-18T06:50:44.106Z,72032
2017-05-18T06:51:44.140Z,71296
2017-05-18T06:52:58.801Z,72928
2017-05-18T06:53:44.225Z,73728
2017-05-18T06:54:44.258Z,76096
2017-05-18T06:55:44.295Z,76640
2017-05-18T06:56:44.338Z,75616
2017-05-18T06:57:44.386Z,71840
2017-05-18T06:58:44.413Z,71232
2017-05-18T06:59:44.453Z,73824
2017-05-18T07:00:44.492Z,74912
2017-05-18T07:01:44.529Z,72576
2017-05-18T07:02:44.571Z,72288
2017-05-18T07:03:59.230Z,72224
2017-05-18T07:04:44.647Z,70304
2017-05-18T07:05:44.683Z,68384
2017-05-18T07:07:44.763Z,69632
2017-05-18T07:08:59.418Z,70624
2017-05-18T07:09:44.837Z,72640
2017-05-18T07:10:44.876Z,66624
2017-05-18T07:11:44.914Z,63616
2017-05-18T07:12:44.955Z,68864
2017-05-18T07:13:44.994Z,72768
2017-05-18T07:14:45.032Z,72672
2017-05-18T07:15:45.069Z,69728
2017-05-18T07:16:59.728Z,66304
2017-05-18T07:17:59.770Z,66048
2017-05-18T07:18:45.187Z,65600
2017-05-18T07:20:59.887Z,66464
2017-05-18T07:21:45.305Z,66496
2017-05-18T07:22:45.345Z,65952
2017-05-18T07:24:00.002Z,61792
2017-05-18T07:24:45.428Z,63648
2017-05-18T07:25:45.457Z,69920
2017-05-18T07:26:45.497Z,67008
2017-05-18T07:28:00.161Z,63040
2017-05-18T07:28:45.581Z,64960
2017-05-18T07:29:45.620Z,64928
2017-05-18T07:30:45.654Z,64192
2017-05-18T07:32:00.314Z,65024
2017-05-18T07:33:00.352Z,64448
2017-05-18T07:33:45.774Z,62528
2017-05-18T07:35:00.435Z,60480
2017-05-18T07:36:45.895Z,65984
2017-05-18T07:37:45.928Z,63520
2017-05-18T07:38:45.972Z,64096
2017-05-18T07:39:45.709Z,62784
2017-05-18T07:40:46.043Z,61408
2017-05-18T07:41:46.086Z,60672
2017-05-18T07:42:46.125Z,62272
2017-05-18T07:43:46.164Z,61888
2017-05-18T07:44:46.199Z,61856
2017-05-18T07:45:46.242Z,65184
2017-05-18T07:47:00.899Z,61184
2017-05-18T07:47:46.320Z,60544
2017-05-18T07:48:46.357Z,63392
2017-05-18T07:49:46.394Z,63616
2017-05-18T07:50:46.433Z,64064
2017-05-18T07:52:46.516Z,61184
2017-05-18T07:53:46.554Z,63808
2017-05-18T07:54:46.588Z,62048
2017-05-18T07:56:01.252Z,59712
2017-05-18T07:56:46.665Z,61728
2017-05-18T07:57:46.706Z,59424
2017-05-18T07:58:46.749Z,59424
2017-05-18T07:59:46.781Z,59072
2017-05-18T08:00:46.820Z,59328
2017-05-18T08:02:01.547Z,55968
2017-05-18T08:03:01.517Z,58080
2017-05-18T08:03:46.937Z,58144
2017-05-18T08:04:47.029Z,50944
2017-05-18T08:05:47.012Z,53408
2017-05-18T08:06:46.756Z,58272
2017-05-18T08:07:46.786Z,56768
2017-05-18T08:08:46.901Z,54912
2017-05-18T08:10:01.786Z,49856
2017-05-18T08:10:47.211Z,44704
2017-05-18T08:12:01.917Z,28288
2017-05-18T08:12:47.280Z,21344
2017-05-18T08:13:47.330Z,19136
2017-05-18T08:14:47.362Z,18784
2017-05-18T08:15:47.092Z,18496
2017-05-18T08:16:47.440Z,18176
2017-05-18T08:18:47.512Z,18080
2017-05-18T08:19:47.245Z,17952
2017-05-18T08:21:02.205Z,17824
2017-05-18T08:21:47.625Z,17632
2017-05-18T08:22:47.661Z,17664
2017-05-18T08:23:47.397Z,17696
2017-05-18T08:24:47.739Z,17632
2017-05-18T08:25:47.778Z,17472
2017-05-18T08:26:47.816Z,17376
2017-05-18T08:28:02.474Z,17096
2017-05-18T08:28:47.891Z,16988
2017-05-18T08:29:47.926Z,17016
2017-05-18T08:30:47.963Z,16944
2017-05-18T08:31:48.004Z,16868
2017-05-18T08:32:48.041Z,16956
2017-05-18T08:33:48.137Z,16972
2017-05-18T08:34:48.120Z,16804
2017-05-18T08:36:02.773Z,16900
2017-05-18T08:36:48.193Z,16840
2017-05-18T08:38:02.850Z,16768
2017-05-18T08:38:48.265Z,16824
2017-05-18T08:40:48.340Z,16784
2017-05-18T08:41:48.379Z,16524
2017-05-18T08:42:48.417Z,16208
2017-05-18T08:44:03.084Z,16364
2017-05-18T08:44:48.488Z,16316
2017-05-18T08:45:48.530Z,16416
2017-05-18T08:47:03.191Z,16144
2017-05-18T08:47:48.605Z,16068
2017-05-18T08:48:48.638Z,16060
2017-05-18T08:49:48.676Z,16044
2017-05-18T08:50:48.709Z,15968
2017-05-18T08:51:48.760Z,16008
2017-05-18T08:52:48.790Z,15752
2017-05-18T08:54:48.860Z,15512
2017-05-18T08:56:03.518Z,15420
2017-05-18T08:57:48.975Z,15524
2017-05-18T08:59:03.630Z,15616
2017-05-18T08:59:49.112Z,15708
2017-05-18T09:00:49.085Z,15856
2017-05-18T09:01:49.124Z,15568
2017-05-18T09:02:49.162Z,15604
2017-05-18T09:03:49.197Z,15372
2017-05-18T09:04:49.232Z,15116
2017-05-18T09:05:49.270Z,15172
2017-05-18T09:06:49.312Z,15176
2017-05-18T09:08:03.972Z,14984
2017-05-18T09:09:04.004Z,15004
2017-05-18T09:09:49.425Z,15016
2017-05-18T09:10:49.456Z,14920
2017-05-18T09:11:49.494Z,14836
2017-05-18T09:12:49.538Z,14700
2017-05-18T09:13:49.572Z,14888
2017-05-18T09:14:49.624Z,14668
2017-05-18T09:15:49.611Z,14956
2017-05-18T09:17:49.687Z,14588
2017-05-18T09:18:49.726Z,14436
2017-05-18T09:20:49.499Z,14304
2017-05-18T09:21:49.864Z,14272
2017-05-18T09:22:49.930Z,14360
2017-05-18T09:23:49.946Z,14284
2017-05-18T09:25:04.625Z,14308
2017-05-18T09:25:50.078Z,14136
2017-05-18T09:27:04.696Z,14188
2017-05-18T09:27:50.172Z,14072
2017-05-18T09:28:50.140Z,12992
2017-05-18T09:29:50.186Z,13648
2017-05-18T09:31:50.259Z,13436
2017-05-18T09:32:50.291Z,13712
2017-05-18T09:33:50.337Z,13912
2017-05-18T09:35:04.978Z,13648
2017-05-18T09:36:50.442Z,13520
2017-05-18T09:37:50.457Z,13508
2017-05-18T09:39:50.537Z,13436
2017-05-18T09:40:50.580Z,13508
2017-05-18T09:41:50.605Z,13356
2017-05-18T09:42:50.668Z,13396
2017-05-18T09:44:05.279Z,13308
2017-05-18T09:44:50.733Z,13500
2017-05-18T09:45:50.748Z,13488
2017-05-18T09:47:05.410Z,13448
2017-05-18T09:47:50.814Z,13352
2017-05-18T09:48:50.866Z,13148
2017-05-18T09:49:50.968Z,13196
2017-05-18T09:51:05.537Z,13204
2017-05-18T09:51:50.673Z,13216
2017-05-18T09:52:50.999Z,13328
2017-05-18T09:53:51.071Z,13396
2017-05-18T09:54:51.074Z,13360
2017-05-18T09:55:51.107Z,13332
2017-05-18T09:56:51.154Z,13436
2017-05-18T09:58:05.798Z,13312
2017-05-18T09:58:51.234Z,13088
2017-05-18T09:59:51.234Z,13036
2017-05-18T10:01:05.912Z,12860
2017-05-18T10:02:05.934Z,12844
2017-05-18T10:03:05.968Z,12844
2017-05-18T10:04:06.019Z,12856
2017-05-18T10:05:05.738Z,12864
2017-05-18T10:05:51.486Z,12904
2017-05-18T10:06:51.500Z,12876
2017-05-18T10:07:51.545Z,12744
2017-05-18T10:08:51.565Z,12748
2017-05-18T10:09:51.621Z,12696
2017-05-18T10:10:51.680Z,12564
2017-05-18T10:11:51.368Z,12652
2017-05-18T10:12:51.710Z,12468
2017-05-18T10:13:51.514Z,12388
2017-05-18T10:15:06.388Z,12448
2017-05-18T10:15:51.833Z,12432
2017-05-18T10:17:51.902Z,12352
2017-05-18T10:19:06.534Z,12188
2017-05-18T10:19:52.013Z,12172
2017-05-18T10:20:52.014Z,12208
2017-05-18T10:21:52.052Z,12112
2017-05-18T10:22:52.095Z,12148
2017-05-18T10:23:51.795Z,12140
2017-05-18T10:24:51.829Z,12224
2017-05-18T10:25:51.878Z,11508
2017-05-18T10:26:51.927Z,11580
2017-05-18T10:27:52.239Z,12064
2017-05-18T10:28:51.992Z,11932
2017-05-18T10:29:52.330Z,12004
2017-05-18T10:30:52.080Z,11868
2017-05-18T10:32:07.008Z,11796
2017-05-18T10:32:52.465Z,11808
2017-05-18T10:34:07.081Z,11764
2017-05-18T10:34:52.505Z,11812
2017-05-18T10:35:52.542Z,11804
2017-05-18T10:36:52.585Z,11828
2017-05-18T10:37:52.598Z,11700
2017-05-18T10:38:52.325Z,11592
2017-05-18T10:39:52.669Z,11564
2017-05-18T10:40:52.728Z,11540
2017-05-18T10:41:52.740Z,11440
2017-05-18T10:42:52.787Z,11336
2017-05-18T10:43:52.514Z,11284
2017-05-18T10:44:52.617Z,10736
2017-05-18T10:45:52.889Z,10756
2017-05-18T10:46:52.979Z,10684
2017-05-18T10:48:07.256Z,10948
2017-05-18T10:49:07.608Z,10840
2017-05-18T10:50:53.059Z,10688
2017-05-18T10:52:07.717Z,10648
2017-05-18T10:52:53.117Z,10664
2017-05-18T10:53:53.148Z,10592
2017-05-18T10:54:53.202Z,10524
2017-05-18T10:55:52.932Z,10416
2017-05-18T10:56:52.966Z,10384
2017-05-18T10:57:53.295Z,10348
2017-05-18T10:59:53.361Z,10260
2017-05-18T11:00:53.407Z,10224
2017-05-18T11:01:53.133Z,10152
2017-05-18T11:02:53.514Z,10184
2017-05-18T11:03:53.490Z,10196
2017-05-18T11:04:53.557Z,10068
2017-05-18T11:06:08.183Z,9884
2017-05-18T11:07:08.218Z,9564
2017-05-18T11:07:53.644Z,9416
2017-05-18T11:10:08.319Z,9092
2017-05-18T11:11:08.341Z,8904
2017-05-18T11:11:53.508Z,8744
2017-05-18T11:12:53.497Z,8656
2017-05-18T11:13:53.866Z,8552
2017-05-18T11:15:08.500Z,8412
2017-05-18T11:15:53.891Z,8360
2017-05-18T11:16:53.946Z,8320
2017-05-18T11:18:08.573Z,8212
2017-05-18T11:18:53.709Z,8144
2017-05-18T11:19:54.036Z,8092
2017-05-18T11:20:54.098Z,8024
2017-05-18T11:22:08.721Z,7964
2017-05-18T11:22:54.138Z,7880
2017-05-18T11:23:54.184Z,7828
2017-05-18T11:24:54.201Z,7764
2017-05-18T11:26:08.854Z,7680
2017-05-18T11:26:54.252Z,7596
2017-05-18T11:27:54.322Z,7528
2017-05-18T11:28:54.345Z,7500
2017-05-18T11:29:54.084Z,7432
2017-05-18T11:30:54.399Z,7376
2017-05-18T11:31:54.444Z,7296
2017-05-18T11:32:54.482Z,7204
2017-05-18T11:33:54.498Z,7220
2017-05-18T11:36:54.587Z,7156
2017-05-18T11:38:08.949Z,7116
2017-05-18T11:38:54.674Z,6572
2017-05-18T11:40:09.018Z,6144
2017-05-18T11:41:09.350Z,6076
2017-05-18T11:42:09.376Z,6612
2017-05-18T11:42:54.815Z,6580
2017-05-18T11:43:54.830Z,6788
2017-05-18T11:44:54.889Z,6876
2017-05-18T11:45:54.901Z,6808
2017-05-18T11:46:54.633Z,6820
2017-05-18T11:47:54.957Z,6636
2017-05-18T11:48:55.002Z,6768
2017-05-18T11:49:55.036Z,6744
2017-05-18T11:50:54.764Z,6744
2017-05-18T11:51:55.106Z,6748
2017-05-18T11:52:55.118Z,6688
2017-05-18T11:54:09.785Z,6664
2017-05-18T11:55:09.803Z,6604
2017-05-18T11:55:55.223Z,6552
2017-05-18T11:56:55.315Z,6628
2017-05-18T11:57:54.988Z,6636
2017-05-18T11:58:55.314Z,6616
2017-05-18T11:59:55.054Z,6656
2017-05-18T12:00:55.391Z,6660
2017-05-18T12:01:55.447Z,6604
2017-05-18T12:02:55.448Z,6608
2017-05-18T12:03:55.496Z,6560
2017-05-18T12:04:55.505Z,6552
2017-05-18T12:06:10.156Z,6512
2017-05-18T12:07:55.640Z,6404
2017-05-18T12:09:10.279Z,6452
2017-05-18T12:09:55.691Z,6440
2017-05-18T12:10:55.426Z,6452
2017-05-18T12:11:55.727Z,6420
2017-05-18T12:14:10.434Z,6348
2017-05-18T12:15:10.451Z,6324
2017-05-18T12:15:55.897Z,6316
2017-05-18T12:17:10.525Z,6304
2017-05-18T12:17:55.950Z,6272
2017-05-18T12:18:55.980Z,6288
2017-05-18T12:19:56.074Z,6272
2017-05-18T12:21:56.055Z,6284
2017-05-18T12:22:56.124Z,6252
2017-05-18T12:23:56.140Z,6212
2017-05-18T12:25:56.186Z,6188
2017-05-18T12:27:10.860Z,6196
2017-05-18T12:28:10.892Z,6188
2017-05-18T12:28:56.327Z,6188
2017-05-18T12:29:56.341Z,6204
2017-05-18T12:30:56.371Z,6216
2017-05-18T12:31:56.395Z,6232
2017-05-18T12:32:56.459Z,6208
2017-05-18T12:33:56.486Z,6196
2017-05-18T12:35:11.109Z,6180
2017-05-18T12:35:56.531Z,6176
2017-05-18T12:36:56.574Z,6172
2017-05-18T12:37:56.619Z,6156
2017-05-18T12:38:56.633Z,6128
2017-05-18T12:39:56.678Z,6084
2017-05-18T12:41:11.309Z,6056
2017-05-18T12:41:56.732Z,6052
2017-05-18T12:42:56.762Z,6044
2017-05-18T12:43:56.790Z,6076
2017-05-18T12:44:56.532Z,6088
2017-05-18T12:45:56.856Z,6096
2017-05-18T12:46:56.905Z,6108
2017-05-18T12:47:56.922Z,6108
2017-05-18T12:48:56.978Z,6092
2017-05-18T12:49:56.981Z,6100
2017-05-18T12:50:56.723Z,6088
2017-05-18T12:51:57.039Z,6080
2017-05-18T12:52:57.114Z,6080
2017-05-18T12:54:11.726Z,6092
2017-05-18T12:54:57.149Z,6112
2017-05-18T12:55:57.187Z,6100
2017-05-18T12:57:11.835Z,6152
2017-05-18T12:57:57.248Z,6152
2017-05-18T12:58:57.286Z,6192
2017-05-18T13:00:11.930Z,6180
2017-05-18T13:00:57.345Z,6216
2017-05-18T13:01:57.365Z,6220
2017-05-18T13:03:57.461Z,6236
2017-05-18T13:04:57.479Z,6248
2017-05-18T13:05:57.519Z,6256
2017-05-18T13:06:57.226Z,6260
2017-05-18T13:08:57.608Z,6176
2017-05-18T13:09:57.650Z,6184
2017-05-18T13:10:57.675Z,6216
2017-05-18T13:11:57.708Z,6244
2017-05-18T13:13:12.040Z,6268
2017-05-18T13:13:57.750Z,6252
2017-05-18T13:15:12.413Z,6272
2017-05-18T13:15:57.805Z,6280
2017-05-18T13:16:57.871Z,6280
2017-05-18T13:17:57.898Z,6292
2017-05-18T13:18:57.928Z,6288
2017-05-18T13:19:57.344Z,6316
2017-05-18T13:20:58.006Z,6328
2017-05-18T13:21:58.026Z,6276
2017-05-18T13:22:58.123Z,6264
2017-05-18T13:23:58.082Z,6220
2017-05-18T13:25:58.136Z,6200
2017-05-18T13:26:58.193Z,6172
2017-05-18T13:27:58.215Z,6200
2017-05-18T13:29:12.859Z,6220
2017-05-18T13:29:58.270Z,6228
2017-05-18T13:31:12.923Z,6200
2017-05-18T13:31:58.356Z,6180
2017-05-18T13:32:58.373Z,6188
2017-05-18T13:33:58.426Z,6156
2017-05-18T13:34:58.435Z,6116
2017-05-18T13:35:58.495Z,6096
2017-05-18T13:37:13.117Z,6092
2017-05-18T13:38:58.580Z,6060
2017-05-18T13:40:58.341Z,6052
2017-05-18T13:41:58.679Z,6052
2017-05-18T13:42:58.405Z,6016
2017-05-18T13:44:13.333Z,6028
2017-05-18T13:44:58.774Z,6036
2017-05-18T13:45:58.806Z,6044
2017-05-18T13:47:58.871Z,6056
2017-05-18T13:48:58.898Z,6076
2017-05-18T13:49:58.972Z,6092
2017-05-18T13:50:58.961Z,6104
2017-05-18T13:51:59.002Z,6124
2017-05-18T13:52:59.034Z,6128
2017-05-18T13:53:59.037Z,6080
2017-05-18T13:54:59.071Z,6080
2017-05-18T13:55:59.117Z,6048
2017-05-18T13:56:59.157Z,6076
2017-05-18T13:57:59.197Z,6084
2017-05-18T13:58:59.215Z,6072
2017-05-18T13:59:59.254Z,6060
2017-05-18T14:00:58.974Z,6064
2017-05-18T14:01:59.314Z,6060
2017-05-18T14:03:13.657Z,6136
2017-05-18T14:03:59.064Z,6144
2017-05-18T14:04:59.397Z,6136
2017-05-18T14:05:59.131Z,6124
2017-05-18T14:06:59.472Z,6148
2017-05-18T14:07:59.523Z,6172
2017-05-18T14:08:59.235Z,6176
2017-05-18T14:09:59.569Z,6208
2017-05-18T14:10:59.647Z,6212